Madawaska, ME

11:53 AM EST on December 18, 2014 (GMT -0500)
Caribou Municipal | Change Station
CLOSE
Current Station
Airport
Location: Caribou,
Elevation: 623 ft
Nearby Weather Stations
Active Advisory: Winter Weather Advisory Active Notice: Public Information Statement

Elev 623 ft 46.87 °N, 68.02 °W | Updated 7 minutes ago

Snow
Snow
28 °F
Feels Like 15 °F
N
18
Wind Variable Wind from NNW
Gusts 28 mph

Today
High -- | Low -- °F
--% Chance of Precip.
Yesterday
High -- | Low -- °F
Precip. -- in
7:15 AM 3:44 PM
Waning Crescent, 13% visible
Pressure 29.54 in
Visibility 2.0 miles
Clouds Mostly Cloudy 2100 ft
Overcast 3600 ft
Windchill 15 °F
Dew Point 24 °F
Humidity 85%
Rainfall 0.32 in
Snow Depth Not available.
UV 0 out of 12
Pollen .10 out of 12
Air Quality Not available.
Flu Activity Not available.
SPECI KCAR 181646Z AUTO 33016G24KT 2SM -SN BR BKN021 OVC036 M02/M04 A2954 RMK AO2 P0002 T10221044

More Conditions Fewer Conditions

Pressure 29.54 in
Visibility 2.0 miles
Clouds Mostly Cloudy 2100 ft
Overcast 3600 ft
Windchill 15 °F
Dew Point 24 °F
Humidity 85%
Rainfall 0.32 in
Snow Depth Not available.
UV 0 out of 12
Pollen .10 out of 12
Air Quality Not available.
Flu Activity Not available.
SPECI KCAR 181646Z AUTO 33016G24KT 2SM -SN BR BKN021 OVC036 M02/M04 A2954 RMK AO2 P0002 T10221044

More Conditions Fewer Conditions

10-Day Weather Forecast

Almanac

Astronomy

Dec. 18, 2014 Rise Set
Actual Time
Civil Twilight
Nautical Twilight
Astronomical Twilight
Moon
Length of Visible Light
Length of Day
Tomorrow will be .
, % of the Moon is Illuminated

Today's Extremes

State Highs State Lows

Community

WunderPhotos

Upload Photos

1,778,960 photos uploaded!

WunderBlogs® & News

Nearby

Air Quality

  Air Quality AQ Index Pollutant
Not available.

Snow Depth

Station Depth Elevation

Earthquake Activity

City Distance Mag. Time & Date
Minimum magnitude displayed is 2.5.

Coastal Water Temperatures

Place Temperature

Nearby Weather Stations